sensor_id;sensor_type;location;lat;lon;timestamp;temperature;humidity
29281;DHT22;25048;49.590;11.026;2023-12-04T00:01:45;-7.40;99.90
29281;DHT22;25048;49.590;11.026;2023-12-04T00:04:13;-7.40;99.90
29281;DHT22;25048;49.590;11.026;2023-12-04T00:06:44;-7.50;99.90
29281;DHT22;25048;49.590;11.026;2023-12-04T00:09:11;-7.50;99.90
29281;DHT22;25048;49.590;11.026;2023-12-04T00:11:39;-7.60;99.90
29281;DHT22;25048;49.590;11.026;2023-12-04T00:14:06;-7.50;99.90
29281;DHT22;25048;49.590;11.026;2023-12-04T00:16:34;-7.50;99.90
29281;DHT22;25048;49.590;11.026;2023-12-04T00:19:02;-7.50;99.90
29281;DHT22;25048;49.590;11.026;2023-12-04T00:21:29;-7.50;99.90
29281;DHT22;25048;49.590;11.026;2023-12-04T00:23:57;-7.50;99.90
29281;DHT22;25048;49.590;11.026;2023-12-04T00:26:24;-7.50;99.90
29281;DHT22;25048;49.590;11.026;2023-12-04T00:28:52;-7.40;99.90
29281;DHT22;25048;49.590;11.026;2023-12-04T00:31:19;-7.40;99.90
29281;DHT22;25048;49.590;11.026;2023-12-04T00:33:47;-7.40;99.90
29281;DHT22;25048;49.590;11.026;2023-12-04T00:36:15;-7.40;99.90
29281;DHT22;25048;49.590;11.026;2023-12-04T00:38:42;-7.40;99.90
29281;DHT22;25048;49.590;11.026;2023-12-04T00:41:11;-7.30;99.90
29281;DHT22;25048;49.590;11.026;2023-12-04T00:43:38;-7.30;99.90
29281;DHT22;25048;49.590;11.026;2023-12-04T00:46:06;-7.20;99.90
29281;DHT22;25048;49.590;11.026;2023-12-04T00:48:34;-7.20;99.90
29281;DHT22;25048;49.590;11.026;2023-12-04T00:51:01;-7.20;99.90
29281;DHT22;25048;49.590;11.026;2023-12-04T00:53:29;-7.20;99.90
29281;DHT22;25048;49.590;11.026;2023-12-04T00:55:56;-7.20;99.90
29281;DHT22;25048;49.590;11.026;2023-12-04T00:58:24;-7.20;99.90
29281;DHT22;25048;49.590;11.026;2023-12-04T01:00:51;-7.20;99.90
29281;DHT22;25048;49.590;11.026;2023-12-04T01:03:19;-7.30;99.90
29281;DHT22;25048;49.590;11.026;2023-12-04T01:05:46;-7.30;99.90
29281;DHT22;25048;49.590;11.026;2023-12-04T01:08:14;-7.40;99.90
29281;DHT22;25048;49.590;11.026;2023-12-04T01:10:41;-7.40;99.90
29281;DHT22;25048;49.590;11.026;2023-12-04T01:13:09;-7.40;99.90
29281;DHT22;25048;49.590;11.026;2023-12-04T01:15:36;-7.30;99.90
29281;DHT22;25048;49.590;11.026;2023-12-04T01:18:05;-7.40;99.90
29281;DHT22;25048;49.590;11.026;2023-12-04T01:20:32;-7.40;99.90
29281;DHT22;25048;49.590;11.026;2023-12-04T01:23:00;-7.40;99.90
29281;DHT22;25048;49.590;11.026;2023-12-04T01:25:27;-7.30;99.90
29281;DHT22;25048;49.590;11.026;2023-12-04T01:27:55;-7.30;99.90
29281;DHT22;25048;49.590;11.026;2023-12-04T01:30:22;-7.20;99.90
29281;DHT22;25048;49.590;11.026;2023-12-04T01:32:50;-7.20;99.90
29281;DHT22;25048;49.590;11.026;2023-12-04T01:35:18;-7.20;99.90
29281;DHT22;25048;49.590;11.026;2023-12-04T01:37:45;-7.20;99.90
29281;DHT22;25048;49.590;11.026;2023-12-04T01:40:13;-7.20;99.90
29281;DHT22;25048;49.590;11.026;2023-12-04T01:42:42;-7.20;99.90
29281;DHT22;25048;49.590;11.026;2023-12-04T01:45:10;-7.20;99.90
29281;DHT22;25048;49.590;11.026;2023-12-04T01:47:39;-7.20;99.90
29281;DHT22;25048;49.590;11.026;2023-12-04T01:50:07;-7.10;99.90
29281;DHT22;25048;49.590;11.026;2023-12-04T01:52:36;-7.10;99.90
29281;DHT22;25048;49.590;11.026;2023-12-04T01:55:05;-7.00;99.90
29281;DHT22;25048;49.590;11.026;2023-12-04T01:57:33;-7.00;99.90
29281;DHT22;25048;49.590;11.026;2023-12-04T02:00:01;-7.00;99.90
29281;DHT22;25048;49.590;11.026;2023-12-04T02:02:29;-7.00;99.90
29281;DHT22;25048;49.590;11.026;2023-12-04T02:04:58;-7.10;99.90
29281;DHT22;25048;49.590;11.026;2023-12-04T02:07:26;-7.10;99.90
29281;DHT22;25048;49.590;11.026;2023-12-04T02:09:54;-7.10;99.90
29281;DHT22;25048;49.590;11.026;2023-12-04T02:12:22;-7.20;99.90
29281;DHT22;25048;49.590;11.026;2023-12-04T02:14:49;-7.20;99.90
29281;DHT22;25048;49.590;11.026;2023-12-04T02:17:17;-7.30;99.90
29281;DHT22;25048;49.590;11.026;2023-12-04T02:19:44;-7.30;99.90
29281;DHT22;25048;49.590;11.026;2023-12-04T02:22:12;-7.30;99.90
29281;DHT22;25048;49.590;11.026;2023-12-04T02:24:40;-7.30;99.90
29281;DHT22;25048;49.590;11.026;2023-12-04T02:29:41;-7.40;99.90
29281;DHT22;25048;49.590;11.026;2023-12-04T02:32:11;-7.40;99.90
29281;DHT22;25048;49.590;11.026;2023-12-04T02:34:41;-7.40;99.90
29281;DHT22;25048;49.590;11.026;2023-12-04T02:37:09;-7.50;99.90
29281;DHT22;25048;49.590;11.026;2023-12-04T02:39:37;-7.50;99.90
29281;DHT22;25048;49.590;11.026;2023-12-04T02:42:06;-7.50;99.90
29281;DHT22;25048;49.590;11.026;2023-12-04T02:44:33;-7.60;99.90
29281;DHT22;25048;49.590;11.026;2023-12-04T02:47:01;-7.60;99.90
29281;DHT22;25048;49.590;11.026;2023-12-04T02:49:29;-7.60;99.90
29281;DHT22;25048;49.590;11.026;2023-12-04T02:51:56;-7.70;99.90
29281;DHT22;25048;49.590;11.026;2023-12-04T02:54:24;-7.70;99.90
29281;DHT22;25048;49.590;11.026;2023-12-04T02:56:51;-7.70;99.90
29281;DHT22;25048;49.590;11.026;2023-12-04T02:59:19;-7.80;99.90
29281;DHT22;25048;49.590;11.026;2023-12-04T03:01:46;-7.80;99.90
29281;DHT22;25048;49.590;11.026;2023-12-04T03:04:14;-7.90;99.90
29281;DHT22;25048;49.590;11.026;2023-12-04T03:06:41;-8.00;99.90
29281;DHT22;25048;49.590;11.026;2023-12-04T03:09:09;-8.00;99.90
29281;DHT22;25048;49.590;11.026;2023-12-04T03:11:40;-8.00;99.90
29281;DHT22;25048;49.590;11.026;2023-12-04T03:14:08;-8.10;99.90
29281;DHT22;25048;49.590;11.026;2023-12-04T03:16:36;-8.10;99.90
29281;DHT22;25048;49.590;11.026;2023-12-04T03:19:03;-8.10;99.90
29281;DHT22;25048;49.590;11.026;2023-12-04T03:21:31;-8.10;99.90
29281;DHT22;25048;49.590;11.026;2023-12-04T03:23:58;-8.20;99.90
29281;DHT22;25048;49.590;11.026;2023-12-04T03:26:26;-8.20;99.90
29281;DHT22;25048;49.590;11.026;2023-12-04T03:28:54;-8.30;99.90
29281;DHT22;25048;49.590;11.026;2023-12-04T03:31:22;-8.30;99.90
29281;DHT22;25048;49.590;11.026;2023-12-04T03:33:50;-8.30;99.90
29281;DHT22;25048;49.590;11.026;2023-12-04T03:38:46;-8.30;99.90
29281;DHT22;25048;49.590;11.026;2023-12-04T03:41:17;-8.30;99.90
29281;DHT22;25048;49.590;11.026;2023-12-04T03:43:44;-8.40;99.90
29281;DHT22;25048;49.590;11.026;2023-12-04T03:46:12;-8.40;99.90
29281;DHT22;25048;49.590;11.026;2023-12-04T03:48:39;-8.40;99.90
29281;DHT22;25048;49.590;11.026;2023-12-04T03:51:07;-8.50;99.90
29281;DHT22;25048;49.590;11.026;2023-12-04T03:53:35;-8.50;99.90
29281;DHT22;25048;49.590;11.026;2023-12-04T03:56:02;-8.50;99.90
29281;DHT22;25048;49.590;11.026;2023-12-04T03:58:30;-8.40;99.90
29281;DHT22;25048;49.590;11.026;2023-12-04T04:00:57;-8.40;99.90
29281;DHT22;25048;49.590;11.026;2023-12-04T04:03:25;-8.50;99.90
29281;DHT22;25048;49.590;11.026;2023-12-04T04:05:52;-8.50;99.90
29281;DHT22;25048;49.590;11.026;2023-12-04T04:08:20;-8.40;99.90
29281;DHT22;25048;49.590;11.026;2023-12-04T04:10:47;-8.40;99.90
29281;DHT22;25048;49.590;11.026;2023-12-04T04:13:15;-8.40;99.90
29281;DHT22;25048;49.590;11.026;2023-12-04T04:15:42;-8.30;99.90
29281;DHT22;25048;49.590;11.026;2023-12-04T04:18:10;-8.30;99.90
29281;DHT22;25048;49.590;11.026;2023-12-04T04:20:38;-8.20;99.90
29281;DHT22;25048;49.590;11.026;2023-12-04T04:23:05;-8.10;99.90
29281;DHT22;25048;49.590;11.026;2023-12-04T04:25:33;-8.10;99.90
29281;DHT22;25048;49.590;11.026;2023-12-04T04:28:00;-8.00;99.90
29281;DHT22;25048;49.590;11.026;2023-12-04T04:30:28;-8.00;99.90
29281;DHT22;25048;49.590;11.026;2023-12-04T04:32:55;-8.00;99.90
29281;DHT22;25048;49.590;11.026;2023-12-04T04:35:23;-8.00;99.90
29281;DHT22;25048;49.590;11.026;2023-12-04T04:37:50;-7.90;99.90
29281;DHT22;25048;49.590;11.026;2023-12-04T04:40:18;-7.90;99.90
29281;DHT22;25048;49.590;11.026;2023-12-04T04:42:46;-7.90;99.90
29281;DHT22;25048;49.590;11.026;2023-12-04T04:45:14;-7.90;99.90
29281;DHT22;25048;49.590;11.026;2023-12-04T04:47:42;-7.90;99.90
29281;DHT22;25048;49.590;11.026;2023-12-04T04:50:09;-7.90;99.90
29281;DHT22;25048;49.590;11.026;2023-12-04T04:52:37;-7.80;99.90
29281;DHT22;25048;49.590;11.026;2023-12-04T04:55:05;-7.80;99.90
29281;DHT22;25048;49.590;11.026;2023-12-04T04:57:33;-7.80;99.90
29281;DHT22;25048;49.590;11.026;2023-12-04T05:00:00;-7.80;99.90
29281;DHT22;25048;49.590;11.026;2023-12-04T05:02:28;-7.80;99.90
29281;DHT22;25048;49.590;11.026;2023-12-04T05:04:55;-7.80;99.90
29281;DHT22;25048;49.590;11.026;2023-12-04T05:07:23;-7.70;99.90
29281;DHT22;25048;49.590;11.026;2023-12-04T05:09:50;-7.70;99.90
29281;DHT22;25048;49.590;11.026;2023-12-04T05:12:18;-7.70;99.90
29281;DHT22;25048;49.590;11.026;2023-12-04T05:14:45;-7.70;99.90
29281;DHT22;25048;49.590;11.026;2023-12-04T05:17:13;-7.70;99.90
29281;DHT22;25048;49.590;11.026;2023-12-04T05:19:40;-7.70;99.90
29281;DHT22;25048;49.590;11.026;2023-12-04T05:22:08;-7.70;99.90
29281;DHT22;25048;49.590;11.026;2023-12-04T05:24:36;-7.70;99.90
29281;DHT22;25048;49.590;11.026;2023-12-04T05:27:03;-7.70;99.90
29281;DHT22;25048;49.590;11.026;2023-12-04T05:29:31;-7.70;99.90
29281;DHT22;25048;49.590;11.026;2023-12-04T05:31:59;-7.70;99.90
29281;DHT22;25048;49.590;11.026;2023-12-04T05:34:26;-7.60;99.90
29281;DHT22;25048;49.590;11.026;2023-12-04T05:36:53;-7.50;99.90
29281;DHT22;25048;49.590;11.026;2023-12-04T05:39:21;-7.50;99.90
29281;DHT22;25048;49.590;11.026;2023-12-04T05:41:49;-7.40;99.90
29281;DHT22;25048;49.590;11.026;2023-12-04T05:44:16;-7.40;99.90
29281;DHT22;25048;49.590;11.026;2023-12-04T05:46:44;-7.40;99.90
29281;DHT22;25048;49.590;11.026;2023-12-04T05:49:11;-7.30;99.90
29281;DHT22;25048;49.590;11.026;2023-12-04T05:51:39;-7.30;99.90
29281;DHT22;25048;49.590;11.026;2023-12-04T05:54:06;-7.30;99.90
29281;DHT22;25048;49.590;11.026;2023-12-04T05:56:35;-7.20;99.90
29281;DHT22;25048;49.590;11.026;2023-12-04T05:59:02;-7.20;99.90
29281;DHT22;25048;49.590;11.026;2023-12-04T06:01:30;-7.20;99.90
29281;DHT22;25048;49.590;11.026;2023-12-04T06:03:58;-7.10;99.90
29281;DHT22;25048;49.590;11.026;2023-12-04T06:06:26;-7.00;99.90
29281;DHT22;25048;49.590;11.026;2023-12-04T06:08:53;-6.90;99.90
29281;DHT22;25048;49.590;11.026;2023-12-04T06:11:21;-6.90;99.90
29281;DHT22;25048;49.590;11.026;2023-12-04T06:13:49;-6.80;99.90
29281;DHT22;25048;49.590;11.026;2023-12-04T06:16:16;-6.80;99.90
29281;DHT22;25048;49.590;11.026;2023-12-04T06:18:44;-6.80;99.90
29281;DHT22;25048;49.590;11.026;2023-12-04T06:21:11;-6.70;99.90
29281;DHT22;25048;49.590;11.026;2023-12-04T06:23:39;-6.70;99.90
29281;DHT22;25048;49.590;11.026;2023-12-04T06:26:07;-6.70;99.90
29281;DHT22;25048;49.590;11.026;2023-12-04T06:28:35;-6.70;99.90
29281;DHT22;25048;49.590;11.026;2023-12-04T06:31:03;-6.70;99.90
29281;DHT22;25048;49.590;11.026;2023-12-04T06:33:31;-6.70;99.90
29281;DHT22;25048;49.590;11.026;2023-12-04T06:35:59;-6.70;99.90
29281;DHT22;25048;49.590;11.026;2023-12-04T06:38:28;-6.80;99.90
29281;DHT22;25048;49.590;11.026;2023-12-04T06:40:58;-6.80;99.90
29281;DHT22;25048;49.590;11.026;2023-12-04T06:43:25;-6.80;99.90
29281;DHT22;25048;49.590;11.026;2023-12-04T06:45:54;-6.80;99.90
29281;DHT22;25048;49.590;11.026;2023-12-04T06:48:24;-6.80;99.90
29281;DHT22;25048;49.590;11.026;2023-12-04T06:50:53;-6.80;99.90
29281;DHT22;25048;49.590;11.026;2023-12-04T06:53:20;-6.80;99.90
29281;DHT22;25048;49.590;11.026;2023-12-04T06:55:48;-6.80;99.90
29281;DHT22;25048;49.590;11.026;2023-12-04T06:58:15;-6.80;99.90
29281;DHT22;25048;49.590;11.026;2023-12-04T07:00:43;-6.80;99.90
29281;DHT22;25048;49.590;11.026;2023-12-04T07:03:10;-6.80;99.90
29281;DHT22;25048;49.590;11.026;2023-12-04T07:05:38;-6.80;99.90
29281;DHT22;25048;49.590;11.026;2023-12-04T07:08:05;-6.70;99.90
29281;DHT22;25048;49.590;11.026;2023-12-04T07:10:33;-6.70;99.90
29281;DHT22;25048;49.590;11.026;2023-12-04T07:13:00;-6.60;99.90
29281;DHT22;25048;49.590;11.026;2023-12-04T07:15:28;-6.50;99.90
29281;DHT22;25048;49.590;11.026;2023-12-04T07:17:55;-6.40;99.90
29281;DHT22;25048;49.590;11.026;2023-12-04T07:20:23;-6.40;99.90
29281;DHT22;25048;49.590;11.026;2023-12-04T07:22:50;-6.30;99.90
29281;DHT22;25048;49.590;11.026;2023-12-04T07:25:18;-6.30;99.90
29281;DHT22;25048;49.590;11.026;2023-12-04T07:27:45;-6.30;99.90
29281;DHT22;25048;49.590;11.026;2023-12-04T07:30:13;-6.30;99.90
29281;DHT22;25048;49.590;11.026;2023-12-04T07:32:40;-6.20;99.90
29281;DHT22;25048;49.590;11.026;2023-12-04T07:35:08;-6.20;99.90
29281;DHT22;25048;49.590;11.026;2023-12-04T07:37:36;-6.20;99.90
29281;DHT22;25048;49.590;11.026;2023-12-04T07:40:04;-6.20;99.90
29281;DHT22;25048;49.590;11.026;2023-12-04T07:42:34;-6.10;99.90
29281;DHT22;25048;49.590;11.026;2023-12-04T07:45:01;-6.10;99.90
29281;DHT22;25048;49.590;11.026;2023-12-04T07:47:29;-6.00;99.90
29281;DHT22;25048;49.590;11.026;2023-12-04T07:49:57;-5.90;99.90
29281;DHT22;25048;49.590;11.026;2023-12-04T07:52:24;-5.80;99.90
29281;DHT22;25048;49.590;11.026;2023-12-04T07:54:52;-5.60;99.90
29281;DHT22;25048;49.590;11.026;2023-12-04T07:57:19;-5.40;99.90
29281;DHT22;25048;49.590;11.026;2023-12-04T07:59:47;-5.30;99.90
29281;DHT22;25048;49.590;11.026;2023-12-04T08:02:14;-5.10;99.90
29281;DHT22;25048;49.590;11.026;2023-12-04T08:04:42;-5.00;99.90
29281;DHT22;25048;49.590;11.026;2023-12-04T08:07:09;-4.80;99.90
29281;DHT22;25048;49.590;11.026;2023-12-04T08:09:36;-4.70;99.90
29281;DHT22;25048;49.590;11.026;2023-12-04T08:12:04;-4.60;99.90
29281;DHT22;25048;49.590;11.026;2023-12-04T08:14:32;-4.50;99.90
29281;DHT22;25048;49.590;11.026;2023-12-04T08:17:00;-4.40;99.90
29281;DHT22;25048;49.590;11.026;2023-12-04T08:19:27;-4.40;99.90
29281;DHT22;25048;49.590;11.026;2023-12-04T08:21:55;-4.30;99.90
29281;DHT22;25048;49.590;11.026;2023-12-04T08:24:23;-4.20;99.90
29281;DHT22;25048;49.590;11.026;2023-12-04T08:26:50;-4.20;99.90
29281;DHT22;25048;49.590;11.026;2023-12-04T08:29:18;-4.10;99.90
29281;DHT22;25048;49.590;11.026;2023-12-04T08:31:45;-4.00;99.90
29281;DHT22;25048;49.590;11.026;2023-12-04T08:34:13;-3.80;99.90
29281;DHT22;25048;49.590;11.026;2023-12-04T08:36:40;-3.80;99.90
29281;DHT22;25048;49.590;11.026;2023-12-04T08:39:08;-3.70;99.90
29281;DHT22;25048;49.590;11.026;2023-12-04T08:41:35;-3.70;99.90
29281;DHT22;25048;49.590;11.026;2023-12-04T08:44:03;-3.60;99.90
29281;DHT22;25048;49.590;11.026;2023-12-04T08:46:30;-3.60;99.90
29281;DHT22;25048;49.590;11.026;2023-12-04T08:48:58;-3.50;99.90
29281;DHT22;25048;49.590;11.026;2023-12-04T08:51:25;-3.50;99.90
29281;DHT22;25048;49.590;11.026;2023-12-04T08:53:53;-3.50;99.90
29281;DHT22;25048;49.590;11.026;2023-12-04T08:56:20;-3.40;99.90
29281;DHT22;25048;49.590;11.026;2023-12-04T08:58:48;-3.40;99.90
29281;DHT22;25048;49.590;11.026;2023-12-04T09:01:17;-3.30;99.90
29281;DHT22;25048;49.590;11.026;2023-12-04T09:03:44;-3.20;99.90
29281;DHT22;25048;49.590;11.026;2023-12-04T09:06:12;-3.00;99.90
29281;DHT22;25048;49.590;11.026;2023-12-04T09:08:41;-2.90;99.90
29281;DHT22;25048;49.590;11.026;2023-12-04T09:11:08;-2.80;99.90
29281;DHT22;25048;49.590;11.026;2023-12-04T09:13:36;-2.70;99.90
29281;DHT22;25048;49.590;11.026;2023-12-04T09:16:05;-2.60;99.90
29281;DHT22;25048;49.590;11.026;2023-12-04T09:18:33;-2.50;99.90
29281;DHT22;25048;49.590;11.026;2023-12-04T09:21:00;-2.40;99.90
29281;DHT22;25048;49.590;11.026;2023-12-04T09:23:28;-2.30;99.90
29281;DHT22;25048;49.590;11.026;2023-12-04T09:25:57;-2.20;99.90
29281;DHT22;25048;49.590;11.026;2023-12-04T09:28:24;-2.10;99.90
29281;DHT22;25048;49.590;11.026;2023-12-04T09:30:52;-2.10;99.90
29281;DHT22;25048;49.590;11.026;2023-12-04T09:33:19;-2.00;99.90
29281;DHT22;25048;49.590;11.026;2023-12-04T09:35:47;-2.00;99.90
29281;DHT22;25048;49.590;11.026;2023-12-04T09:38:14;-2.00;99.90
29281;DHT22;25048;49.590;11.026;2023-12-04T09:40:43;-1.90;99.90
29281;DHT22;25048;49.590;11.026;2023-12-04T09:43:11;-1.90;99.90
29281;DHT22;25048;49.590;11.026;2023-12-04T09:45:39;-1.90;99.90
29281;DHT22;25048;49.590;11.026;2023-12-04T09:48:07;-1.80;99.90
29281;DHT22;25048;49.590;11.026;2023-12-04T09:50:36;-1.70;99.90
29281;DHT22;25048;49.590;11.026;2023-12-04T09:53:08;-1.70;99.90
29281;DHT22;25048;49.590;11.026;2023-12-04T09:55:35;-1.70;99.90
29281;DHT22;25048;49.590;11.026;2023-12-04T09:58:03;-1.70;99.90
29281;DHT22;25048;49.590;11.026;2023-12-04T10:00:32;-1.60;99.90
29281;DHT22;25048;49.590;11.026;2023-12-04T10:03:00;-1.50;99.90
29281;DHT22;25048;49.590;11.026;2023-12-04T10:05:28;-1.40;99.90
29281;DHT22;25048;49.590;11.026;2023-12-04T10:07:56;-1.40;99.90
29281;DHT22;25048;49.590;11.026;2023-12-04T10:10:24;-1.30;99.90
29281;DHT22;25048;49.590;11.026;2023-12-04T10:12:51;-1.30;99.90
29281;DHT22;25048;49.590;11.026;2023-12-04T10:15:19;-1.20;99.90
29281;DHT22;25048;49.590;11.026;2023-12-04T10:17:46;-1.10;99.90
29281;DHT22;25048;49.590;11.026;2023-12-04T10:20:15;-0.90;99.90
29281;DHT22;25048;49.590;11.026;2023-12-04T10:22:57;-0.90;99.90
29281;DHT22;25048;49.590;11.026;2023-12-04T10:25:31;-0.80;99.90
29281;DHT22;25048;49.590;11.026;2023-12-04T10:28:12;-0.70;99.90
29281;DHT22;25048;49.590;11.026;2023-12-04T10:30:41;-0.50;99.90
29281;DHT22;25048;49.590;11.026;2023-12-04T10:33:09;-0.30;99.90
29281;DHT22;25048;49.590;11.026;2023-12-04T10:35:37;-0.10;99.90
29281;DHT22;25048;49.590;11.026;2023-12-04T10:38:05;-0.30;99.90
29281;DHT22;25048;49.590;11.026;2023-12-04T10:40:34;-0.30;99.90
29281;DHT22;25048;49.590;11.026;2023-12-04T10:43:16;-0.40;99.90
29281;DHT22;25048;49.590;11.026;2023-12-04T10:45:46;-0.40;99.90
29281;DHT22;25048;49.590;11.026;2023-12-04T10:48:15;-0.30;99.90
29281;DHT22;25048;49.590;11.026;2023-12-04T10:50:45;-0.30;99.90
29281;DHT22;25048;49.590;11.026;2023-12-04T10:53:14;-0.30;99.90
29281;DHT22;25048;49.590;11.026;2023-12-04T10:55:42;-0.30;99.90
29281;DHT22;25048;49.590;11.026;2023-12-04T10:58:12;-0.30;99.90
29281;DHT22;25048;49.590;11.026;2023-12-04T11:00:48;-0.20;99.90
29281;DHT22;25048;49.590;11.026;2023-12-04T11:03:24;-0.20;99.90
29281;DHT22;25048;49.590;11.026;2023-12-04T11:05:55;-0.20;99.90
29281;DHT22;25048;49.590;11.026;2023-12-04T11:08:21;-0.20;99.90
29281;DHT22;25048;49.590;11.026;2023-12-04T11:11:04;-0.20;99.90
29281;DHT22;25048;49.590;11.026;2023-12-04T11:13:40;-0.10;99.90
29281;DHT22;25048;49.590;11.026;2023-12-04T11:19:39;0.10;99.90
29281;DHT22;25048;49.590;11.026;2023-12-04T11:22:02;0.00;99.90
29281;DHT22;25048;49.590;11.026;2023-12-04T11:24:31;0.00;99.90
29281;DHT22;25048;49.590;11.026;2023-12-04T11:26:59;-0.10;99.90
29281;DHT22;25048;49.590;11.026;2023-12-04T11:29:27;-0.10;99.90
29281;DHT22;25048;49.590;11.026;2023-12-04T11:31:55;-0.10;99.90
29281;DHT22;25048;49.590;11.026;2023-12-04T11:34:24;-0.10;99.90
29281;DHT22;25048;49.590;11.026;2023-12-04T11:36:52;-0.20;99.90
29281;DHT22;25048;49.590;11.026;2023-12-04T11:39:21;-0.30;99.90
29281;DHT22;25048;49.590;11.026;2023-12-04T11:41:50;-0.40;99.90
29281;DHT22;25048;49.590;11.026;2023-12-04T11:44:18;-0.40;99.90
29281;DHT22;25048;49.590;11.026;2023-12-04T11:46:56;-0.40;99.90
29281;DHT22;25048;49.590;11.026;2023-12-04T11:49:28;-0.40;99.90
29281;DHT22;25048;49.590;11.026;2023-12-04T11:52:02;-0.50;99.90
29281;DHT22;25048;49.590;11.026;2023-12-04T11:54:27;-0.50;99.90
29281;DHT22;25048;49.590;11.026;2023-12-04T11:59:39;-0.50;99.90
29281;DHT22;25048;49.590;11.026;2023-12-04T12:02:11;-0.60;99.90
29281;DHT22;25048;49.590;11.026;2023-12-04T12:04:38;-0.60;99.90
29281;DHT22;25048;49.590;11.026;2023-12-04T12:07:06;-0.70;99.90
29281;DHT22;25048;49.590;11.026;2023-12-04T12:09:34;-0.70;99.90
29281;DHT22;25048;49.590;11.026;2023-12-04T12:12:03;-0.70;99.90
29281;DHT22;25048;49.590;11.026;2023-12-04T12:14:31;-0.80;99.90
29281;DHT22;25048;49.590;11.026;2023-12-04T12:17:00;-0.80;99.90
29281;DHT22;25048;49.590;11.026;2023-12-04T12:19:30;-0.80;99.90
29281;DHT22;25048;49.590;11.026;2023-12-04T12:21:58;-0.90;99.90
29281;DHT22;25048;49.590;11.026;2023-12-04T12:24:25;-0.70;99.90
29281;DHT22;25048;49.590;11.026;2023-12-04T12:26:54;-0.70;99.90
29281;DHT22;25048;49.590;11.026;2023-12-04T12:29:22;-0.60;99.90
29281;DHT22;25048;49.590;11.026;2023-12-04T12:31:50;-0.70;99.90
29281;DHT22;25048;49.590;11.026;2023-12-04T12:34:18;-0.60;99.90
29281;DHT22;25048;49.590;11.026;2023-12-04T12:36:45;-0.60;99.90
29281;DHT22;25048;49.590;11.026;2023-12-04T12:39:14;-0.60;99.90
29281;DHT22;25048;49.590;11.026;2023-12-04T12:41:49;-0.60;99.90
29281;DHT22;25048;49.590;11.026;2023-12-04T12:44:17;-0.50;99.90
29281;DHT22;25048;49.590;11.026;2023-12-04T12:46:49;-0.40;99.90
29281;DHT22;25048;49.590;11.026;2023-12-04T12:49:20;-0.50;99.90
29281;DHT22;25048;49.590;11.026;2023-12-04T12:51:47;-0.40;99.90
29281;DHT22;25048;49.590;11.026;2023-12-04T12:54:15;-0.50;99.90
29281;DHT22;25048;49.590;11.026;2023-12-04T12:56:43;-0.40;99.90
29281;DHT22;25048;49.590;11.026;2023-12-04T12:59:10;-0.40;99.90
29281;DHT22;25048;49.590;11.026;2023-12-04T13:01:38;-0.30;99.90
29281;DHT22;25048;49.590;11.026;2023-12-04T13:04:05;-0.30;99.90
29281;DHT22;25048;49.590;11.026;2023-12-04T13:06:33;-0.30;99.90
29281;DHT22;25048;49.590;11.026;2023-12-04T13:09:00;-0.40;99.90
29281;DHT22;25048;49.590;11.026;2023-12-04T13:11:28;-0.50;99.90
29281;DHT22;25048;49.590;11.026;2023-12-04T13:13:56;-0.40;99.90
29281;DHT22;25048;49.590;11.026;2023-12-04T13:16:24;-0.40;99.90
29281;DHT22;25048;49.590;11.026;2023-12-04T13:18:51;-0.40;99.90
29281;DHT22;25048;49.590;11.026;2023-12-04T13:21:19;-0.40;99.90
29281;DHT22;25048;49.590;11.026;2023-12-04T13:23:46;-0.50;99.90
29281;DHT22;25048;49.590;11.026;2023-12-04T13:26:14;-0.50;99.90
29281;DHT22;25048;49.590;11.026;2023-12-04T13:28:42;-0.50;99.90
29281;DHT22;25048;49.590;11.026;2023-12-04T13:31:09;-0.50;99.90
29281;DHT22;25048;49.590;11.026;2023-12-04T13:33:37;-0.50;99.90
29281;DHT22;25048;49.590;11.026;2023-12-04T13:36:05;-0.40;99.90
29281;DHT22;25048;49.590;11.026;2023-12-04T13:38:33;-0.30;99.90
29281;DHT22;25048;49.590;11.026;2023-12-04T13:41:02;-0.30;99.90
29281;DHT22;25048;49.590;11.026;2023-12-04T13:43:47;-0.40;99.90
29281;DHT22;25048;49.590;11.026;2023-12-04T13:46:17;-0.30;99.90
29281;DHT22;25048;49.590;11.026;2023-12-04T13:48:45;-0.40;99.90
29281;DHT22;25048;49.590;11.026;2023-12-04T13:51:13;-0.40;99.90
29281;DHT22;25048;49.590;11.026;2023-12-04T13:53:40;-0.50;99.90
29281;DHT22;25048;49.590;11.026;2023-12-04T13:56:12;-0.50;99.90
29281;DHT22;25048;49.590;11.026;2023-12-04T13:58:41;-0.50;99.90
29281;DHT22;25048;49.590;11.026;2023-12-04T14:01:11;-0.50;99.90
29281;DHT22;25048;49.590;11.026;2023-12-04T14:03:43;-0.50;99.90
29281;DHT22;25048;49.590;11.026;2023-12-04T14:06:11;-0.60;99.90
29281;DHT22;25048;49.590;11.026;2023-12-04T14:08:39;-0.60;99.90
29281;DHT22;25048;49.590;11.026;2023-12-04T14:11:07;-0.50;99.90
29281;DHT22;25048;49.590;11.026;2023-12-04T14:13:36;-0.50;99.90
29281;DHT22;25048;49.590;11.026;2023-12-04T14:16:05;-0.50;99.90
29281;DHT22;25048;49.590;11.026;2023-12-04T14:18:33;-0.50;99.90
29281;DHT22;25048;49.590;11.026;2023-12-04T14:21:00;-0.50;99.90
29281;DHT22;25048;49.590;11.026;2023-12-04T14:23:28;-0.50;99.90
29281;DHT22;25048;49.590;11.026;2023-12-04T14:25:56;-0.50;99.90
29281;DHT22;25048;49.590;11.026;2023-12-04T14:28:23;-0.50;99.90
29281;DHT22;25048;49.590;11.026;2023-12-04T14:30:51;-0.50;99.90
29281;DHT22;25048;49.590;11.026;2023-12-04T14:33:18;-0.60;99.90
29281;DHT22;25048;49.590;11.026;2023-12-04T14:35:46;-0.60;99.90
29281;DHT22;25048;49.590;11.026;2023-12-04T14:38:13;-0.60;99.90
29281;DHT22;25048;49.590;11.026;2023-12-04T14:40:41;-0.70;99.90
29281;DHT22;25048;49.590;11.026;2023-12-04T14:43:09;-0.70;99.90
29281;DHT22;25048;49.590;11.026;2023-12-04T14:45:38;-0.80;99.90
29281;DHT22;25048;49.590;11.026;2023-12-04T14:48:05;-0.80;99.90
29281;DHT22;25048;49.590;11.026;2023-12-04T14:50:34;-0.90;99.90
29281;DHT22;25048;49.590;11.026;2023-12-04T14:53:05;-0.90;99.90
29281;DHT22;25048;49.590;11.026;2023-12-04T14:55:50;-1.00;99.90
29281;DHT22;25048;49.590;11.026;2023-12-04T14:58:36;-1.00;99.90
29281;DHT22;25048;49.590;11.026;2023-12-04T15:01:14;-1.00;99.90
29281;DHT22;25048;49.590;11.026;2023-12-04T15:03:43;-1.10;99.90
29281;DHT22;25048;49.590;11.026;2023-12-04T15:06:24;-1.10;99.90
29281;DHT22;25048;49.590;11.026;2023-12-04T15:09:05;-1.20;99.90
29281;DHT22;25048;49.590;11.026;2023-12-04T15:11:46;-1.30;99.90
29281;DHT22;25048;49.590;11.026;2023-12-04T15:14:15;-1.30;99.90
29281;DHT22;25048;49.590;11.026;2023-12-04T15:16:47;-1.40;99.90
29281;DHT22;25048;49.590;11.026;2023-12-04T15:19:16;-1.40;99.90
29281;DHT22;25048;49.590;11.026;2023-12-04T15:21:51;-1.50;99.90
29281;DHT22;25048;49.590;11.026;2023-12-04T15:24:19;-1.50;99.90
29281;DHT22;25048;49.590;11.026;2023-12-04T15:26:47;-1.60;99.90
29281;DHT22;25048;49.590;11.026;2023-12-04T15:29:14;-1.60;99.90
29281;DHT22;25048;49.590;11.026;2023-12-04T15:31:44;-1.60;99.90
29281;DHT22;25048;49.590;11.026;2023-12-04T15:34:12;-1.60;99.90